Carnival Pride — H3VU — position and weather

sailwx.info

Track history (hours):
 
Tides and Currents Weather Stations Pressure Air Temp Water Temp Dewpoint Dewpoint Depression Visibility Wind Speed Wind Dir Waves Ship Positions

Carnival Pride

Operator: Carnival Cruise Lines

Last reported at 2019-Oct-14 10:00 UTC. Time now 2019-Oct-17 15:51 UTC.
Position N 35°36' W 075°06'.

Type: Passenger vessel. MMSI: 354215000.

Wind from 230 at 35 knots

Barometer 1018.0 mb
Air temperature 21.0 ° C
Visibility: greater than 10.8 NM
Dewpoint 19.4 ° C
Water temperature 24.0 ° C

Date/timePositionNaut miles runAvg speedWind from/ knotsBaromVisibWave heightAir tempDewpointWater temp
2019-Oct-14 10:00N 35°36' W 075°06'15018.8 230 / 351018.010.8 21.019.424.0
2019-Oct-14 02:01N 37°57' W 076°10'020.1
2019-Oct-14 02:00N 37°57' W 076°10'1220.0
2019-Oct-14 01:25N 38°08' W 076°14'3620.4
2019-Oct-13 23:39N 38°43' W 076°26'320.4
2019-Oct-13 23:30N 38°46' W 076°26'1020.0
2019-Oct-13 23:00N 38°56' W 076°23'816.7
2019-Oct-13 22:30N 39°04' W 076°24'714.2
2019-Oct-13 22:00N 39°11' W 076°26'612.6
2019-Oct-13 21:30N 39°14' W 076°33'3 5.1
2019-Oct-13 21:00N 39°16' W 076°36'0 0.3
2019-Oct-13 20:30N 39°16' W 076°36'0 0.0
2019-Oct-13 20:00N 39°16' W 076°36'0 0.0
2019-Oct-13 19:30N 39°16' W 076°36'0 0.0
2019-Oct-13 19:00N 39°16' W 076°36'0 0.0
2019-Oct-13 18:30N 39°16' W 076°36'0 0.0
2019-Oct-13 18:00N 39°16' W 076°36'0 0.0
2019-Oct-13 17:30N 39°16' W 076°36'0 0.0
2019-Oct-13 17:00N 39°16' W 076°36'0 0.0
2019-Oct-13 16:30N 39°16' W 076°36'0 0.0
2019-Oct-13 16:00N 39°16' W 076°36'0 0.0
2019-Oct-13 15:30N 39°16' W 076°36'0 0.0
2019-Oct-13 15:00N 39°16' W 076°36'0 0.0
2019-Oct-13 14:30N 39°16' W 076°36'0 0.0
2019-Oct-13 14:00N 39°16' W 076°36'0 0.0
2019-Oct-13 13:30N 39°16' W 076°36'0 0.5
2019-Oct-13 13:00N 39°16' W 076°36'3 6.8
2019-Oct-13 12:30N 39°14' W 076°32'612.2
2019-Oct-13 12:00N 39°10' W 076°26'714.3
2019-Oct-13 11:30N 39°03' W 076°23'816.8
2019-Oct-13 11:00N 38°55' W 076°23'1019.9
2019-Oct-13 10:30N 38°45' W 076°26'3517.7
2019-Oct-13 08:31N 38°11' W 076°14'219.6
2019-Oct-13 08:25N 38°09' W 076°14'919.6
2019-Oct-13 07:56N 37°60' W 076°12'38917.7
2019-Oct-12 10:00N 31°48' W 078°30'   360 / 51018.027.0 23.021.529.0
2019-Oct-08 10:00N 29°06' W 073°12'40216.7 230 / 251020.010.8 25.023.529.0
2019-Oct-07 10:00N 35°36' W 075°06'14720.2 130 / 251027.027.0 23.018.325.0
2019-Oct-07 02:43N 37°54' W 076°10'1719.1
2019-Oct-07 01:51N 38°10' W 076°14'3018.6
2019-Oct-07 00:14N 38°39' W 076°25'419.6
2019-Oct-07 00:00N 38°43' W 076°26'1019.7
2019-Oct-06 23:30N 38°53' W 076°24'917.7
2019-Oct-06 23:00N 39°02' W 076°23'714.6
2019-Oct-06 22:30N 39°09' W 076°25'612.5
2019-Oct-06 22:00N 39°13' W 076°31'4 8.1
2019-Oct-06 21:30N 39°15' W 076°35'1 1.4
2019-Oct-06 21:00N 39°16' W 076°36'0 0.0
2019-Oct-06 20:30N 39°16' W 076°36'0 0.0
2019-Oct-06 20:00N 39°16' W 076°36'0 0.0
2019-Oct-06 19:30N 39°16' W 076°36'0 0.0
2019-Oct-06 19:00N 39°16' W 076°36'0 0.0
2019-Oct-06 18:30N 39°16' W 076°36'0 0.0
2019-Oct-06 18:00N 39°16' W 076°36'0 0.0
2019-Oct-06 17:30N 39°16' W 076°36'0 0.0
2019-Oct-06 17:00N 39°16' W 076°36'0 0.0
2019-Oct-06 16:30N 39°16' W 076°36'0 0.0
2019-Oct-06 16:00N 39°16' W 076°36'0 0.0
2019-Oct-06 15:30N 39°16' W 076°36'0 0.0
2019-Oct-06 15:00N 39°16' W 076°36'0 0.0
2019-Oct-06 14:30N 39°16' W 076°36'0 0.0
2019-Oct-06 13:58N 39°16' W 076°36'0 0.0
2019-Oct-06 13:30N 39°16' W 076°36'0 0.0
2019-Oct-06 13:00N 39°16' W 076°36'0 0.4
2019-Oct-06 12:31N 39°16' W 076°36'2 4.9
2019-Oct-06 12:01N 39°14' W 076°33'511.0
2019-Oct-06 11:31N 39°11' W 076°27'714.7
2019-Oct-06 11:01N 39°04' W 076°24'816.0
2019-Oct-06 10:31N 38°56' W 076°23'917.5
2019-Oct-06 10:01N 38°48' W 076°25'4417.5
2019-Oct-06 07:31N 38°05' W 076°13'418.3
2019-Oct-06 07:17N 38°01' W 076°13'28813.5
2019-Oct-05 10:00N 33°18' W 075°06'22313.9 040 / 351021.010.8 24.021.029.0
2019-Oct-04 18:00N 29°36' W 075°30'12015.1 050 / 101020.010.8 27.024.129.0
2019-Oct-04 10:00N 27°36' W 075°42'   090 / 121017.610.8 26.024.629.0
Track history (hours):
 
Tides and Currents Weather Stations Pressure Air Temp Water Temp Dewpoint Dewpoint Depression Visibility Wind Speed Wind Dir Waves Ship Positions

Carnival Pride

Operator: Carnival Cruise Lines

Last reported at 2019-Oct-14 10:00 UTC. Time now 2019-Oct-17 15:51 UTC.
Position N 35°36' W 075°06'.

Type: Passenger vessel. MMSI: 354215000.

Wind from 230 at 35 knots

Barometer 1018.0 mb
Air temperature 21.0 ° C
Visibility: greater than 10.8 NM
Dewpoint 19.4 ° C
Water temperature 24.0 ° C

Date/timePositionNaut miles runAvg speedWind from/ knotsBaromVisibWave heightAir tempDewpointWater temp
2019-Oct-14 10:00N 35°36' W 075°06'15018.8 230 / 351018.010.8 21.019.424.0
2019-Oct-14 02:01N 37°57' W 076°10'020.1
2019-Oct-14 02:00N 37°57' W 076°10'1220.0
2019-Oct-14 01:25N 38°08' W 076°14'3620.4
2019-Oct-13 23:39N 38°43' W 076°26'320.4
2019-Oct-13 23:30N 38°46' W 076°26'1020.0
2019-Oct-13 23:00N 38°56' W 076°23'816.7
2019-Oct-13 22:30N 39°04' W 076°24'714.2
2019-Oct-13 22:00N 39°11' W 076°26'612.6
2019-Oct-13 21:30N 39°14' W 076°33'3 5.1
2019-Oct-13 21:00N 39°16' W 076°36'0 0.3
2019-Oct-13 20:30N 39°16' W 076°36'0 0.0
2019-Oct-13 20:00N 39°16' W 076°36'0 0.0
2019-Oct-13 19:30N 39°16' W 076°36'0 0.0
2019-Oct-13 19:00N 39°16' W 076°36'0 0.0
2019-Oct-13 18:30N 39°16' W 076°36'0 0.0
2019-Oct-13 18:00N 39°16' W 076°36'0 0.0
2019-Oct-13 17:30N 39°16' W 076°36'0 0.0
2019-Oct-13 17:00N 39°16' W 076°36'0 0.0
2019-Oct-13 16:30N 39°16' W 076°36'0 0.0
2019-Oct-13 16:00N 39°16' W 076°36'0 0.0
2019-Oct-13 15:30N 39°16' W 076°36'0 0.0
2019-Oct-13 15:00N 39°16' W 076°36'0 0.0
2019-Oct-13 14:30N 39°16' W 076°36'0 0.0
2019-Oct-13 14:00N 39°16' W 076°36'0 0.0
2019-Oct-13 13:30N 39°16' W 076°36'0 0.5
2019-Oct-13 13:00N 39°16' W 076°36'3 6.8
2019-Oct-13 12:30N 39°14' W 076°32'612.2
2019-Oct-13 12:00N 39°10' W 076°26'714.3
2019-Oct-13 11:30N 39°03' W 076°23'816.8
2019-Oct-13 11:00N 38°55' W 076°23'1019.9
2019-Oct-13 10:30N 38°45' W 076°26'3517.7
2019-Oct-13 08:31N 38°11' W 076°14'219.6
2019-Oct-13 08:25N 38°09' W 076°14'919.6
2019-Oct-13 07:56N 37°60' W 076°12'38917.7
2019-Oct-12 10:00N 31°48' W 078°30'   360 / 51018.027.0 23.021.529.0
2019-Oct-08 10:00N 29°06' W 073°12'40216.7 230 / 251020.010.8 25.023.529.0
2019-Oct-07 10:00N 35°36' W 075°06'14720.2 130 / 251027.027.0 23.018.325.0
2019-Oct-07 02:43N 37°54' W 076°10'1719.1
2019-Oct-07 01:51N 38°10' W 076°14'3018.6
2019-Oct-07 00:14N 38°39' W 076°25'419.6
2019-Oct-07 00:00N 38°43' W 076°26'1019.7
2019-Oct-06 23:30N 38°53' W 076°24'917.7
2019-Oct-06 23:00N 39°02' W 076°23'714.6
2019-Oct-06 22:30N 39°09' W 076°25'612.5
2019-Oct-06 22:00N 39°13' W 076°31'4 8.1
2019-Oct-06 21:30N 39°15' W 076°35'1 1.4
2019-Oct-06 21:00N 39°16' W 076°36'0 0.0
2019-Oct-06 20:30N 39°16' W 076°36'0 0.0
2019-Oct-06 20:00N 39°16' W 076°36'0 0.0
2019-Oct-06 19:30N 39°16' W 076°36'0 0.0
2019-Oct-06 19:00N 39°16' W 076°36'0 0.0
2019-Oct-06 18:30N 39°16' W 076°36'0 0.0
2019-Oct-06 18:00N 39°16' W 076°36'0 0.0
2019-Oct-06 17:30N 39°16' W 076°36'0 0.0
2019-Oct-06 17:00N 39°16' W 076°36'0 0.0
2019-Oct-06 16:30N 39°16' W 076°36'0 0.0
2019-Oct-06 16:00N 39°16' W 076°36'0 0.0
2019-Oct-06 15:30N 39°16' W 076°36'0 0.0
2019-Oct-06 15:00N 39°16' W 076°36'0 0.0
2019-Oct-06 14:30N 39°16' W 076°36'0 0.0
2019-Oct-06 13:58N 39°16' W 076°36'0 0.0
2019-Oct-06 13:30N 39°16' W 076°36'0 0.0
2019-Oct-06 13:00N 39°16' W 076°36'0 0.4
2019-Oct-06 12:31N 39°16' W 076°36'2 4.9
2019-Oct-06 12:01N 39°14' W 076°33'511.0
2019-Oct-06 11:31N 39°11' W 076°27'714.7
2019-Oct-06 11:01N 39°04' W 076°24'816.0
2019-Oct-06 10:31N 38°56' W 076°23'917.5
2019-Oct-06 10:01N 38°48' W 076°25'4417.5
2019-Oct-06 07:31N 38°05' W 076°13'418.3
2019-Oct-06 07:17N 38°01' W 076°13'28813.5
2019-Oct-05 10:00N 33°18' W 075°06'22313.9 040 / 351021.010.8 24.021.029.0
2019-Oct-04 18:00N 29°36' W 075°30'12015.1 050 / 101020.010.8 27.024.129.0
2019-Oct-04 10:00N 27°36' W 075°42'   090 / 121017.610.8 26.024.629.0

Dump ship's entire track history